sensor_id;sensor_type;location;lat;lon;timestamp;pressure;altitude;pressure_sealevel;temperature;humidity
53908;BME280;40469;47.998;7.794;2022-12-10T00:01:20;97743.00;;;-0.33;100.00
53908;BME280;40469;47.998;7.794;2022-12-10T00:03:46;97753.25;;;-0.33;100.00
53908;BME280;40469;47.998;7.794;2022-12-10T00:06:14;97751.56;;;-0.32;100.00
53908;BME280;40469;47.998;7.794;2022-12-10T00:08:40;97745.63;;;-0.30;100.00
53908;BME280;40469;47.998;7.794;2022-12-10T00:11:07;97756.72;;;-0.31;100.00
53908;BME280;40469;47.998;7.794;2022-12-10T00:13:34;97760.09;;;-0.32;100.00
53908;BME280;40469;47.998;7.794;2022-12-10T00:16:01;97760.03;;;-0.38;100.00
53908;BME280;40469;47.998;7.794;2022-12-10T00:18:26;97749.78;;;-0.38;100.00
53908;BME280;40469;47.998;7.794;2022-12-10T00:20:52;97756.59;;;-0.39;100.00
53908;BME280;40469;47.998;7.794;2022-12-10T00:23:18;97759.03;;;-0.46;100.00
53908;BME280;40469;47.998;7.794;2022-12-10T00:25:43;97774.47;;;-0.45;100.00
53908;BME280;40469;47.998;7.794;2022-12-10T00:28:09;97765.97;;;-0.42;100.00
53908;BME280;40469;47.998;7.794;2022-12-10T00:30:34;97759.94;;;-0.43;100.00
53908;BME280;40469;47.998;7.794;2022-12-10T00:33:00;97757.38;;;-0.43;100.00
53908;BME280;40469;47.998;7.794;2022-12-10T00:35:25;97751.47;;;-0.39;100.00
53908;BME280;40469;47.998;7.794;2022-12-10T00:37:50;97748.97;;;-0.32;100.00
53908;BME280;40469;47.998;7.794;2022-12-10T00:40:15;97740.47;;;-0.31;100.00
53908;BME280;40469;47.998;7.794;2022-12-10T00:42:41;97747.25;;;-0.35;100.00
53908;BME280;40469;47.998;7.794;2022-12-10T00:45:07;97746.38;;;-0.37;100.00
53908;BME280;40469;47.998;7.794;2022-12-10T00:47:32;97748.94;;;-0.35;100.00
53908;BME280;40469;47.998;7.794;2022-12-10T00:49:58;97736.94;;;-0.38;100.00
53908;BME280;40469;47.998;7.794;2022-12-10T00:52:23;97753.25;;;-0.33;100.00
53908;BME280;40469;47.998;7.794;2022-12-10T00:54:48;97761.13;;;-0.21;100.00
53908;BME280;40469;47.998;7.794;2022-12-10T00:57:14;97778.31;;;-0.13;100.00
53908;BME280;40469;47.998;7.794;2022-12-10T00:59:39;97776.53;;;-0.19;100.00
53908;BME280;40469;47.998;7.794;2022-12-10T01:02:04;97777.38;;;-0.20;100.00
53908;BME280;40469;47.998;7.794;2022-12-10T01:04:30;97771.34;;;-0.22;100.00
53908;BME280;40469;47.998;7.794;2022-12-10T01:06:55;97779.94;;;-0.20;100.00
53908;BME280;40469;47.998;7.794;2022-12-10T01:09:23;97792.94;;;-0.08;100.00
53908;BME280;40469;47.998;7.794;2022-12-10T01:11:51;97785.13;;;-0.17;100.00
53908;BME280;40469;47.998;7.794;2022-12-10T01:14:23;97785.97;;;-0.16;100.00
53908;BME280;40469;47.998;7.794;2022-12-10T01:16:50;97788.53;;;-0.16;100.00
53908;BME280;40469;47.998;7.794;2022-12-10T01:19:18;97789.38;;;-0.16;100.00
53908;BME280;40469;47.998;7.794;2022-12-10T01:21:43;97775.63;;;-0.23;100.00
53908;BME280;40469;47.998;7.794;2022-12-10T01:24:08;97768.78;;;-0.22;100.00
53908;BME280;40469;47.998;7.794;2022-12-10T01:26:34;97766.19;;;-0.25;100.00
53908;BME280;40469;47.998;7.794;2022-12-10T01:29:00;97764.50;;;-0.23;100.00
53908;BME280;40469;47.998;7.794;2022-12-10T01:31:28;97767.88;;;-0.26;100.00
53908;BME280;40469;47.998;7.794;2022-12-10T01:33:55;97771.25;;;-0.30;100.00
53908;BME280;40469;47.998;7.794;2022-12-10T01:36:29;97776.41;;;-0.27;100.00
53908;BME280;40469;47.998;7.794;2022-12-10T01:38:55;97777.28;;;-0.28;100.00
53908;BME280;40469;47.998;7.794;2022-12-10T01:41:24;97785.81;;;-0.27;100.00
53908;BME280;40469;47.998;7.794;2022-12-10T01:46:45;97790.91;;;-0.29;100.00
53908;BME280;40469;47.998;7.794;2022-12-10T01:49:14;97784.94;;;-0.29;100.00
53908;BME280;40469;47.998;7.794;2022-12-10T01:51:41;97784.13;;;-0.25;100.00
53908;BME280;40469;47.998;7.794;2022-12-10T01:54:11;97778.16;;;-0.26;100.00
53908;BME280;40469;47.998;7.794;2022-12-10T01:56:40;97783.28;;;-0.26;100.00
53908;BME280;40469;47.998;7.794;2022-12-10T01:59:06;97783.22;;;-0.29;100.00
53908;BME280;40469;47.998;7.794;2022-12-10T02:01:44;97786.66;;;-0.27;100.00
53908;BME280;40469;47.998;7.794;2022-12-10T02:12:27;97798.63;;;-0.29;100.00
53908;BME280;40469;47.998;7.794;2022-12-10T02:15:00;97788.34;;;-0.30;100.00
53908;BME280;40469;47.998;7.794;2022-12-10T02:17:34;97799.53;;;-0.25;100.00
53908;BME280;40469;47.998;7.794;2022-12-10T02:20:10;97787.56;;;-0.26;100.00
53908;BME280;40469;47.998;7.794;2022-12-10T02:23:08;97797.81;;;-0.26;100.00
53908;BME280;40469;47.998;7.794;2022-12-10T02:25:38;97796.06;;;-0.29;100.00
53908;BME280;40469;47.998;7.794;2022-12-10T02:28:12;97797.78;;;-0.28;100.00
53908;BME280;40469;47.998;7.794;2022-12-10T02:30:39;97798.66;;;-0.27;100.00
53908;BME280;40469;47.998;7.794;2022-12-10T02:33:07;97795.19;;;-0.31;100.00
53908;BME280;40469;47.998;7.794;2022-12-10T02:35:35;97792.59;;;-0.31;100.00
53908;BME280;40469;47.998;7.794;2022-12-10T02:38:13;97786.59;;;-0.33;100.00
53908;BME280;40469;47.998;7.794;2022-12-10T02:40:44;97791.72;;;-0.33;100.00
53908;BME280;40469;47.998;7.794;2022-12-10T02:43:12;97785.78;;;-0.29;100.00
53908;BME280;40469;47.998;7.794;2022-12-10T02:45:38;97791.78;;;-0.30;100.00
53908;BME280;40469;47.998;7.794;2022-12-10T02:48:04;97781.47;;;-0.33;100.00
53908;BME280;40469;47.998;7.794;2022-12-10T02:50:30;97788.34;;;-0.29;100.00
53908;BME280;40469;47.998;7.794;2022-12-10T02:52:56;97795.25;;;-0.26;100.00
53908;BME280;40469;47.998;7.794;2022-12-10T02:55:21;97794.41;;;-0.25;100.00
53908;BME280;40469;47.998;7.794;2022-12-10T02:57:55;97791.81;;;-0.25;100.00
53908;BME280;40469;47.998;7.794;2022-12-10T03:00:26;97792.69;;;-0.26;100.00
53908;BME280;40469;47.998;7.794;2022-12-10T03:08:24;97790.13;;;-0.26;100.00
53908;BME280;40469;47.998;7.794;2022-12-10T03:10:55;97794.38;;;-0.27;100.00
53908;BME280;40469;47.998;7.794;2022-12-10T03:13:29;97789.25;;;-0.25;100.00
53908;BME280;40469;47.998;7.794;2022-12-10T03:15:55;97786.72;;;-0.24;100.00
53908;BME280;40469;47.998;7.794;2022-12-10T03:18:24;97792.72;;;-0.22;100.00
53908;BME280;40469;47.998;7.794;2022-12-10T03:20:54;97782.44;;;-0.26;100.00
53908;BME280;40469;47.998;7.794;2022-12-10T03:23:22;97787.59;;;-0.25;100.00
53908;BME280;40469;47.998;7.794;2022-12-10T03:25:50;97778.94;;;-0.28;100.00
53908;BME280;40469;47.998;7.794;2022-12-10T03:28:18;97778.94;;;-0.28;100.00
53908;BME280;40469;47.998;7.794;2022-12-10T03:30:45;97789.31;;;-0.22;100.00
53908;BME280;40469;47.998;7.794;2022-12-10T03:33:11;97776.47;;;-0.24;100.00
53908;BME280;40469;47.998;7.794;2022-12-10T03:35:38;97773.06;;;-0.23;100.00
53908;BME280;40469;47.998;7.794;2022-12-10T03:38:04;97771.31;;;-0.25;100.00
53908;BME280;40469;47.998;7.794;2022-12-10T03:40:29;97775.59;;;-0.26;100.00
53908;BME280;40469;47.998;7.794;2022-12-10T03:42:55;97778.19;;;-0.24;100.00
53908;BME280;40469;47.998;7.794;2022-12-10T03:45:20;97777.31;;;-0.25;100.00
53908;BME280;40469;47.998;7.794;2022-12-10T03:47:45;97771.25;;;-0.31;100.00
53908;BME280;40469;47.998;7.794;2022-12-10T03:50:11;97777.25;;;-0.29;100.00
53908;BME280;40469;47.998;7.794;2022-12-10T03:52:36;97780.66;;;-0.29;100.00
53908;BME280;40469;47.998;7.794;2022-12-10T03:55:02;97773.81;;;-0.31;100.00
53908;BME280;40469;47.998;7.794;2022-12-10T03:57:28;97776.38;;;-0.31;100.00
53908;BME280;40469;47.998;7.794;2022-12-10T03:59:53;97773.72;;;-0.36;100.00
53908;BME280;40469;47.998;7.794;2022-12-10T04:02:19;97772.00;;;-0.35;100.00
53908;BME280;40469;47.998;7.794;2022-12-10T04:04:44;97773.72;;;-0.36;100.00
53908;BME280;40469;47.998;7.794;2022-12-10T04:07:10;97779.72;;;-0.37;100.00
53908;BME280;40469;47.998;7.794;2022-12-10T04:09:35;97777.16;;;-0.35;100.00
53908;BME280;40469;47.998;7.794;2022-12-10T04:12:01;97782.25;;;-0.39;100.00
53908;BME280;40469;47.998;7.794;2022-12-10T04:14:27;97782.22;;;-0.40;100.00
53908;BME280;40469;47.998;7.794;2022-12-10T04:17:11;97790.81;;;-0.36;100.00
53908;BME280;40469;47.998;7.794;2022-12-10T04:19:37;97800.28;;;-0.32;100.00
53908;BME280;40469;47.998;7.794;2022-12-10T04:22:02;97794.28;;;-0.34;100.00
53908;BME280;40469;47.998;7.794;2022-12-10T04:24:46;97790.81;;;-0.36;100.00
53908;BME280;40469;47.998;7.794;2022-12-10T04:27:33;97789.94;;;-0.39;100.00
53908;BME280;40469;47.998;7.794;2022-12-10T04:30:00;97788.22;;;-0.40;100.00
53908;BME280;40469;47.998;7.794;2022-12-10T04:32:28;97787.38;;;-0.39;100.00
53908;BME280;40469;47.998;7.794;2022-12-10T04:34:54;97789.09;;;-0.38;100.00
53908;BME280;40469;47.998;7.794;2022-12-10T04:37:20;97784.09;;;-0.30;100.00
53908;BME280;40469;47.998;7.794;2022-12-10T04:39:46;97790.03;;;-0.31;100.00
53908;BME280;40469;47.998;7.794;2022-12-10T04:42:12;97784.88;;;-0.34;100.00
53908;BME280;40469;47.998;7.794;2022-12-10T04:44:38;97784.88;;;-0.32;100.00
53908;BME280;40469;47.998;7.794;2022-12-10T04:47:05;97787.50;;;-0.29;100.00
53908;BME280;40469;47.998;7.794;2022-12-10T04:49:31;97784.97;;;-0.28;100.00
53908;BME280;40469;47.998;7.794;2022-12-10T04:51:56;97784.91;;;-0.31;100.00
53908;BME280;40469;47.998;7.794;2022-12-10T04:54:22;97777.19;;;-0.32;100.00
53908;BME280;40469;47.998;7.794;2022-12-10T04:56:48;97774.63;;;-0.32;100.00
53908;BME280;40469;47.998;7.794;2022-12-10T04:59:14;97779.72;;;-0.35;100.00
53908;BME280;40469;47.998;7.794;2022-12-10T05:01:39;97783.19;;;-0.33;100.00
53908;BME280;40469;47.998;7.794;2022-12-10T05:04:07;97784.03;;;-0.33;100.00
53908;BME280;40469;47.998;7.794;2022-12-10T05:06:33;97777.16;;;-0.37;100.00
53908;BME280;40469;47.998;7.794;2022-12-10T05:08:59;97791.75;;;-0.31;100.00
53908;BME280;40469;47.998;7.794;2022-12-10T05:11:27;97786.66;;;-0.30;100.00
53908;BME280;40469;47.998;7.794;2022-12-10T05:13:54;97790.03;;;-0.32;100.00
53908;BME280;40469;47.998;7.794;2022-12-10T05:16:21;97790.00;;;-0.34;100.00
53908;BME280;40469;47.998;7.794;2022-12-10T05:18:48;97792.56;;;-0.34;100.00
53908;BME280;40469;47.998;7.794;2022-12-10T05:21:16;97795.13;;;-0.34;100.00
53908;BME280;40469;47.998;7.794;2022-12-10T05:23:46;97794.28;;;-0.34;100.00
53908;BME280;40469;47.998;7.794;2022-12-10T05:26:18;97800.25;;;-0.34;100.00
53908;BME280;40469;47.998;7.794;2022-12-10T05:28:47;97800.22;;;-0.37;100.00
53908;BME280;40469;47.998;7.794;2022-12-10T05:31:18;97806.19;;;-0.38;100.00
53908;BME280;40469;47.998;7.794;2022-12-10T05:33:43;97812.16;;;-0.38;100.00
53908;BME280;40469;47.998;7.794;2022-12-10T05:36:10;97816.53;;;-0.33;100.00
53908;BME280;40469;47.998;7.794;2022-12-10T05:38:36;97819.00;;;-0.38;100.00
53908;BME280;40469;47.998;7.794;2022-12-10T05:41:09;97817.41;;;-0.31;100.00
53908;BME280;40469;47.998;7.794;2022-12-10T05:43:36;97820.91;;;-0.23;100.00
53908;BME280;40469;47.998;7.794;2022-12-10T05:46:06;97829.44;;;-0.26;100.00
53908;BME280;40469;47.998;7.794;2022-12-10T05:48:33;97829.50;;;-0.23;100.00
53908;BME280;40469;47.998;7.794;2022-12-10T05:51:10;97828.50;;;-0.32;100.00
53908;BME280;40469;47.998;7.794;2022-12-10T05:53:36;97824.09;;;-0.40;100.00
53908;BME280;40469;47.998;7.794;2022-12-10T05:56:06;97827.47;;;-0.44;100.00
53908;BME280;40469;47.998;7.794;2022-12-10T05:58:33;97838.69;;;-0.35;100.00
53908;BME280;40469;47.998;7.794;2022-12-10T06:00:58;97841.31;;;-0.32;100.00
53908;BME280;40469;47.998;7.794;2022-12-10T06:03:26;97837.88;;;-0.34;100.00
53908;BME280;40469;47.998;7.794;2022-12-10T06:05:52;97848.13;;;-0.34;100.00
53908;BME280;40469;47.998;7.794;2022-12-10T06:08:18;97843.72;;;-0.43;100.00
53908;BME280;40469;47.998;7.794;2022-12-10T06:10:43;97847.13;;;-0.43;100.00
53908;BME280;40469;47.998;7.794;2022-12-10T06:13:09;97859.09;;;-0.43;100.00
53908;BME280;40469;47.998;7.794;2022-12-10T06:15:39;97852.22;;;-0.44;100.00
53908;BME280;40469;47.998;7.794;2022-12-10T06:18:04;97852.19;;;-0.49;100.00
53908;BME280;40469;47.998;7.794;2022-12-10T06:20:30;97858.13;;;-0.50;100.00
53908;BME280;40469;47.998;7.794;2022-12-10T06:22:55;97864.94;;;-0.52;100.00
53908;BME280;40469;47.998;7.794;2022-12-10T06:25:21;97860.66;;;-0.51;100.00
53908;BME280;40469;47.998;7.794;2022-12-10T06:27:47;97871.94;;;-0.42;100.00
53908;BME280;40469;47.998;7.794;2022-12-10T06:30:12;97861.78;;;-0.35;100.00
53908;BME280;40469;47.998;7.794;2022-12-10T06:32:37;97864.25;;;-0.42;100.00
53908;BME280;40469;47.998;7.794;2022-12-10T06:35:03;97871.88;;;-0.45;100.00
53908;BME280;40469;47.998;7.794;2022-12-10T06:37:29;97870.09;;;-0.50;100.00
53908;BME280;40469;47.998;7.794;2022-12-10T06:39:54;97872.53;;;-0.58;100.00
53908;BME280;40469;47.998;7.794;2022-12-10T06:42:20;97877.56;;;-0.64;100.00
53908;BME280;40469;47.998;7.794;2022-12-10T06:44:46;97880.19;;;-0.61;100.00
53908;BME280;40469;47.998;7.794;2022-12-10T06:47:11;97889.53;;;-0.63;100.00
53908;BME280;40469;47.998;7.794;2022-12-10T06:49:37;97884.38;;;-0.65;100.00
53908;BME280;40469;47.998;7.794;2022-12-10T06:52:02;97886.97;;;-0.63;100.00
53908;BME280;40469;47.998;7.794;2022-12-10T06:54:28;97891.25;;;-0.62;100.00
53908;BME280;40469;47.998;7.794;2022-12-10T06:56:53;97894.69;;;-0.62;100.00
53908;BME280;40469;47.998;7.794;2022-12-10T06:59:19;97893.84;;;-0.61;100.00
53908;BME280;40469;47.998;7.794;2022-12-10T07:01:45;97897.22;;;-0.65;100.00
53908;BME280;40469;47.998;7.794;2022-12-10T07:04:11;97896.41;;;-0.61;100.00
53908;BME280;40469;47.998;7.794;2022-12-10T07:06:36;97893.78;;;-0.65;100.00
53908;BME280;40469;47.998;7.794;2022-12-10T07:09:02;97901.50;;;-0.62;100.00
53908;BME280;40469;47.998;7.794;2022-12-10T07:11:27;97904.91;;;-0.65;100.00
53908;BME280;40469;47.998;7.794;2022-12-10T07:13:53;97903.22;;;-0.63;100.00
53908;BME280;40469;47.998;7.794;2022-12-10T07:16:20;97907.56;;;-0.59;100.00
53908;BME280;40469;47.998;7.794;2022-12-10T07:18:48;97911.03;;;-0.55;100.00
53908;BME280;40469;47.998;7.794;2022-12-10T07:21:21;97918.69;;;-0.57;100.00
53908;BME280;40469;47.998;7.794;2022-12-10T07:23:48;97911.72;;;-0.65;100.00
53908;BME280;40469;47.998;7.794;2022-12-10T07:26:14;97914.41;;;-0.58;100.00
53908;BME280;40469;47.998;7.794;2022-12-10T07:28:39;97921.41;;;-0.49;100.00
53908;BME280;40469;47.998;7.794;2022-12-10T07:31:07;97923.94;;;-0.50;100.00
53908;BME280;40469;47.998;7.794;2022-12-10T07:33:33;97921.38;;;-0.50;100.00
53908;BME280;40469;47.998;7.794;2022-12-10T07:35:59;97923.88;;;-0.53;100.00
53908;BME280;40469;47.998;7.794;2022-12-10T07:38:27;97925.78;;;-0.42;100.00
53908;BME280;40469;47.998;7.794;2022-12-10T07:40:52;97935.09;;;-0.47;100.00
53908;BME280;40469;47.998;7.794;2022-12-10T07:43:18;97944.47;;;-0.49;100.00
53908;BME280;40469;47.998;7.794;2022-12-10T07:45:43;97944.50;;;-0.47;100.00
53908;BME280;40469;47.998;7.794;2022-12-10T07:48:09;97950.47;;;-0.48;100.00
53908;BME280;40469;47.998;7.794;2022-12-10T07:50:34;97945.31;;;-0.50;100.00
53908;BME280;40469;47.998;7.794;2022-12-10T07:53:00;97947.00;;;-0.50;100.00
53908;BME280;40469;47.998;7.794;2022-12-10T07:55:25;97953.09;;;-0.45;100.00
53908;BME280;40469;47.998;7.794;2022-12-10T07:57:51;97952.31;;;-0.40;100.00
53908;BME280;40469;47.998;7.794;2022-12-10T08:00:16;97948.84;;;-0.43;100.00
53908;BME280;40469;47.998;7.794;2022-12-10T08:02:42;97956.53;;;-0.43;100.00
53908;BME280;40469;47.998;7.794;2022-12-10T08:05:08;97958.13;;;-0.50;100.00
53908;BME280;40469;47.998;7.794;2022-12-10T08:07:33;97963.34;;;-0.45;100.00
53908;BME280;40469;47.998;7.794;2022-12-10T08:09:59;97963.31;;;-0.47;100.00
53908;BME280;40469;47.998;7.794;2022-12-10T08:12:24;97968.47;;;-0.45;100.00
53908;BME280;40469;47.998;7.794;2022-12-10T08:14:49;97977.88;;;-0.46;100.00
53908;BME280;40469;47.998;7.794;2022-12-10T08:17:14;97973.63;;;-0.44;100.00
53908;BME280;40469;47.998;7.794;2022-12-10T08:19:40;97978.75;;;-0.44;100.00
53908;BME280;40469;47.998;7.794;2022-12-10T08:22:05;97983.91;;;-0.42;100.00
53908;BME280;40469;47.998;7.794;2022-12-10T08:24:31;97984.88;;;-0.37;100.00
53908;BME280;40469;47.998;7.794;2022-12-10T08:26:56;97978.97;;;-0.31;100.00
53908;BME280;40469;47.998;7.794;2022-12-10T08:29:21;97973.72;;;-0.38;100.00
53908;BME280;40469;47.998;7.794;2022-12-10T08:31:47;97977.09;;;-0.42;100.00
53908;BME280;40469;47.998;7.794;2022-12-10T08:34:17;97978.66;;;-0.48;100.00
53908;BME280;40469;47.998;7.794;2022-12-10T08:36:43;97981.19;;;-0.50;100.00
53908;BME280;40469;47.998;7.794;2022-12-10T08:39:09;97977.78;;;-0.50;100.00
53908;BME280;40469;47.998;7.794;2022-12-10T08:41:43;97976.94;;;-0.51;100.00
53908;BME280;40469;47.998;7.794;2022-12-10T08:44:08;97979.56;;;-0.46;100.00
53908;BME280;40469;47.998;7.794;2022-12-10T08:46:34;97970.97;;;-0.48;100.00
53908;BME280;40469;47.998;7.794;2022-12-10T08:48:59;97986.34;;;-0.48;100.00
53908;BME280;40469;47.998;7.794;2022-12-10T08:51:25;97975.22;;;-0.50;100.00
53908;BME280;40469;47.998;7.794;2022-12-10T08:53:50;97991.56;;;-0.45;100.00
53908;BME280;40469;47.998;7.794;2022-12-10T08:56:15;97988.25;;;-0.38;100.00
53908;BME280;40469;47.998;7.794;2022-12-10T08:58:41;98000.44;;;-0.26;100.00
53908;BME280;40469;47.998;7.794;2022-12-10T09:01:16;98005.50;;;-0.29;100.00
53908;BME280;40469;47.998;7.794;2022-12-10T09:03:42;98005.66;;;-0.20;100.00
53908;BME280;40469;47.998;7.794;2022-12-10T09:06:10;98015.13;;;-0.17;100.00
53908;BME280;40469;47.998;7.794;2022-12-10T09:08:36;98020.28;;;-0.14;100.00
53908;BME280;40469;47.998;7.794;2022-12-10T09:11:07;98023.56;;;-0.23;100.00
53908;BME280;40469;47.998;7.794;2022-12-10T09:13:33;98035.53;;;-0.24;100.00
53908;BME280;40469;47.998;7.794;2022-12-10T09:15:58;98024.41;;;-0.24;100.00
53908;BME280;40469;47.998;7.794;2022-12-10T09:18:23;98031.97;;;-0.30;100.00
53908;BME280;40469;47.998;7.794;2022-12-10T09:20:49;98034.50;;;-0.33;100.00
53908;BME280;40469;47.998;7.794;2022-12-10T09:23:14;98034.50;;;-0.33;100.00
53908;BME280;40469;47.998;7.794;2022-12-10T09:25:39;98038.78;;;-0.32;100.00
53908;BME280;40469;47.998;7.794;2022-12-10T09:28:05;98031.03;;;-0.37;100.00
53908;BME280;40469;47.998;7.794;2022-12-10T09:30:30;98039.66;;;-0.32;100.00
53908;BME280;40469;47.998;7.794;2022-12-10T09:32:55;98034.47;;;-0.35;100.00
53908;BME280;40469;47.998;7.794;2022-12-10T09:35:20;98055.03;;;-0.32;100.00
53908;BME280;40469;47.998;7.794;2022-12-10T09:37:46;98049.22;;;-0.25;100.00
53908;BME280;40469;47.998;7.794;2022-12-10T09:40:16;98048.25;;;-0.28;100.00
53908;BME280;40469;47.998;7.794;2022-12-10T09:47:42;98041.38;;;-0.31;100.00
53908;BME280;40469;47.998;7.794;2022-12-10T09:50:28;98043.16;;;-0.27;100.00
53908;BME280;40469;47.998;7.794;2022-12-10T09:52:54;98040.56;;;-0.28;100.00
53908;BME280;40469;47.998;7.794;2022-12-10T09:55:39;98036.34;;;-0.26;100.00
53908;BME280;40469;47.998;7.794;2022-12-10T09:58:18;98038.16;;;-0.21;100.00
53908;BME280;40469;47.998;7.794;2022-12-10T10:00:48;98039.16;;;-0.12;100.00
53908;BME280;40469;47.998;7.794;2022-12-10T10:03:15;98035.63;;;-0.19;100.00
53908;BME280;40469;47.998;7.794;2022-12-10T10:05:52;98036.44;;;-0.20;100.00
53908;BME280;40469;47.998;7.794;2022-12-10T10:08:34;98049.25;;;-0.22;100.00
53908;BME280;40469;47.998;7.794;2022-12-10T10:11:02;98044.41;;;-0.05;100.00
53908;BME280;40469;47.998;7.794;2022-12-10T10:13:38;98048.00;;;0.04;100.00
53908;BME280;40469;47.998;7.794;2022-12-10T10:18:50;98051.34;;;0.01;100.00
53908;BME280;40469;47.998;7.794;2022-12-10T10:21:26;98051.28;;;-0.02;100.00
53908;BME280;40469;47.998;7.794;2022-12-10T10:23:54;98047.75;;;-0.10;100.00
53908;BME280;40469;47.998;7.794;2022-12-10T10:26:20;98048.84;;;0.04;100.00
53908;BME280;40469;47.998;7.794;2022-12-10T10:28:46;98056.59;;;0.07;100.00
53908;BME280;40469;47.998;7.794;2022-12-10T10:31:20;98059.94;;;0.03;100.00
53908;BME280;40469;47.998;7.794;2022-12-10T10:33:55;98059.16;;;0.06;100.00
53908;BME280;40469;47.998;7.794;2022-12-10T10:36:27;98065.81;;;-0.04;100.00
53908;BME280;40469;47.998;7.794;2022-12-10T10:38:53;98064.72;;;-0.17;100.00
53908;BME280;40469;47.998;7.794;2022-12-10T10:41:19;98059.53;;;-0.20;100.00
53908;BME280;40469;47.998;7.794;2022-12-10T10:43:45;98069.16;;;-0.08;100.00
53908;BME280;40469;47.998;7.794;2022-12-10T10:46:13;98068.19;;;-0.15;100.00
53908;BME280;40469;47.998;7.794;2022-12-10T10:48:39;98068.16;;;-0.16;100.00
53908;BME280;40469;47.998;7.794;2022-12-10T10:53:43;98069.75;;;-0.22;100.00
53908;BME280;40469;47.998;7.794;2022-12-10T10:56:15;98062.00;;;-0.26;100.00
53908;BME280;40469;47.998;7.794;2022-12-10T11:01:24;98073.19;;;-0.23;100.00
53908;BME280;40469;47.998;7.794;2022-12-10T11:03:58;98071.47;;;-0.22;100.00
53908;BME280;40469;47.998;7.794;2022-12-10T11:06:24;98071.53;;;-0.19;100.00
53908;BME280;40469;47.998;7.794;2022-12-10T11:08:53;98072.31;;;-0.22;100.00
53908;BME280;40469;47.998;7.794;2022-12-10T11:11:39;98071.47;;;-0.22;100.00
53908;BME280;40469;47.998;7.794;2022-12-10T11:14:31;98076.59;;;-0.22;100.00
53908;BME280;40469;47.998;7.794;2022-12-10T11:17:19;98074.00;;;-0.24;100.00
53908;BME280;40469;47.998;7.794;2022-12-10T11:19:55;98075.69;;;-0.26;100.00
53908;BME280;40469;47.998;7.794;2022-12-10T11:22:30;98073.09;;;-0.27;100.00
53908;BME280;40469;47.998;7.794;2022-12-10T11:24:56;98083.31;;;-0.29;100.00
53908;BME280;40469;47.998;7.794;2022-12-10T11:30:45;98084.09;;;-0.33;100.00
53908;BME280;40469;47.998;7.794;2022-12-10T11:44:31;98086.69;;;-0.31;100.00
53908;BME280;40469;47.998;7.794;2022-12-10T11:47:31;98083.28;;;-0.30;100.00
53908;BME280;40469;47.998;7.794;2022-12-10T11:53:18;98092.69;;;-0.31;100.00
53908;BME280;40469;47.998;7.794;2022-12-10T11:59:08;98090.88;;;-0.36;100.00
53908;BME280;40469;47.998;7.794;2022-12-10T12:07:42;98104.56;;;-0.36;100.00
53908;BME280;40469;47.998;7.794;2022-12-10T12:13:04;98114.88;;;-0.33;100.00
53908;BME280;40469;47.998;7.794;2022-12-10T12:15:35;98100.97;;;-0.46;100.00
53908;BME280;40469;47.998;7.794;2022-12-10T12:18:05;98116.59;;;-0.33;100.00
53908;BME280;40469;47.998;7.794;2022-12-10T12:20:34;98118.22;;;-0.37;100.00
53908;BME280;40469;47.998;7.794;2022-12-10T12:23:11;98113.94;;;-0.36;100.00
53908;BME280;40469;47.998;7.794;2022-12-10T12:25:44;98113.94;;;-0.36;100.00
53908;BME280;40469;47.998;7.794;2022-12-10T12:28:23;98125.97;;;-0.34;100.00
53908;BME280;40469;47.998;7.794;2022-12-10T12:30:59;98125.06;;;-0.36;100.00
53908;BME280;40469;47.998;7.794;2022-12-10T12:36:22;98130.34;;;-0.30;100.00
53908;BME280;40469;47.998;7.794;2022-12-10T12:39:00;98129.59;;;-0.24;100.00
53908;BME280;40469;47.998;7.794;2022-12-10T12:44:03;98133.78;;;-0.28;100.00
53908;BME280;40469;47.998;7.794;2022-12-10T12:46:39;98136.59;;;-0.15;100.00
53908;BME280;40469;47.998;7.794;2022-12-10T12:52:24;98145.19;;;-0.13;100.00
53908;BME280;40469;47.998;7.794;2022-12-10T12:54:53;98143.59;;;-0.07;100.00
53908;BME280;40469;47.998;7.794;2022-12-10T12:57:36;98142.66;;;-0.12;100.00
53908;BME280;40469;47.998;7.794;2022-12-10T13:00:15;98143.63;;;-0.04;100.00
53908;BME280;40469;47.998;7.794;2022-12-10T13:05:43;98163.22;;;-0.10;100.00
53908;BME280;40469;47.998;7.794;2022-12-10T13:16:33;98173.25;;;-0.20;100.00
53908;BME280;40469;47.998;7.794;2022-12-10T13:32:41;98186.06;;;-0.23;100.00
53908;BME280;40469;47.998;7.794;2022-12-10T13:37:32;98189.31;;;-0.30;100.00
53908;BME280;40469;47.998;7.794;2022-12-10T13:42:38;98186.63;;;-0.36;100.00
53908;BME280;40469;47.998;7.794;2022-12-10T13:47:53;98205.47;;;-0.34;100.00
53908;BME280;40469;47.998;7.794;2022-12-10T14:04:21;98213.00;;;-0.42;100.00
53908;BME280;40469;47.998;7.794;2022-12-10T14:06:53;98217.28;;;-0.42;100.00
53908;BME280;40469;47.998;7.794;2022-12-10T14:09:25;98225.94;;;-0.37;100.00
53908;BME280;40469;47.998;7.794;2022-12-10T14:12:06;98228.59;;;-0.32;100.00
53908;BME280;40469;47.998;7.794;2022-12-10T14:14:38;98237.13;;;-0.32;100.00
53908;BME280;40469;47.998;7.794;2022-12-10T14:17:16;98239.63;;;-0.36;100.00
53908;BME280;40469;47.998;7.794;2022-12-10T14:19:46;98240.44;;;-0.38;100.00
53908;BME280;40469;47.998;7.794;2022-12-10T14:22:17;98248.94;;;-0.40;100.00
53908;BME280;40469;47.998;7.794;2022-12-10T14:24:48;98253.22;;;-0.39;100.00
53908;BME280;40469;47.998;7.794;2022-12-10T14:27:25;98244.63;;;-0.41;100.00
53908;BME280;40469;47.998;7.794;2022-12-10T14:30:29;98254.38;;;-0.26;100.00
53908;BME280;40469;47.998;7.794;2022-12-10T14:32:56;98265.50;;;-0.26;100.00
53908;BME280;40469;47.998;7.794;2022-12-10T14:35:25;98267.03;;;-0.34;100.00
53908;BME280;40469;47.998;7.794;2022-12-10T14:37:52;98266.03;;;-0.39;100.00
53908;BME280;40469;47.998;7.794;2022-12-10T14:40:25;98262.75;;;-0.35;100.00
53908;BME280;40469;47.998;7.794;2022-12-10T14:43:02;98266.94;;;-0.39;100.00
53908;BME280;40469;47.998;7.794;2022-12-10T14:45:37;98266.78;;;-0.45;100.00
53908;BME280;40469;47.998;7.794;2022-12-10T14:48:04;98265.94;;;-0.45;100.00
53908;BME280;40469;47.998;7.794;2022-12-10T14:50:32;98271.94;;;-0.43;100.00
53908;BME280;40469;47.998;7.794;2022-12-10T14:52:57;98280.44;;;-0.46;100.00